sensor_id;sensor_type;location;lat;lon;timestamp;P1;durP1;ratioP1;P2;durP2;ratioP2
25653;SDS011;13511;48.622;9.230;2023-07-24T00:01:44;12.18;;;10.50;;
25653;SDS011;13511;48.622;9.230;2023-07-24T00:04:10;14.13;;;10.98;;
25653;SDS011;13511;48.622;9.230;2023-07-24T00:06:36;13.30;;;10.57;;
25653;SDS011;13511;48.622;9.230;2023-07-24T00:09:02;16.55;;;12.10;;
25653;SDS011;13511;48.622;9.230;2023-07-24T00:11:28;16.92;;;11.52;;
25653;SDS011;13511;48.622;9.230;2023-07-24T00:13:55;12.55;;;10.52;;
25653;SDS011;13511;48.622;9.230;2023-07-24T00:16:21;10.98;;;9.90;;
25653;SDS011;13511;48.622;9.230;2023-07-24T00:18:47;15.18;;;10.75;;
25653;SDS011;13511;48.622;9.230;2023-07-24T00:21:13;12.00;;;10.15;;
25653;SDS011;13511;48.622;9.230;2023-07-24T00:23:39;12.60;;;10.77;;
25653;SDS011;13511;48.622;9.230;2023-07-24T00:26:05;14.68;;;10.63;;
25653;SDS011;13511;48.622;9.230;2023-07-24T00:28:31;14.00;;;10.57;;
25653;SDS011;13511;48.622;9.230;2023-07-24T00:30:57;12.00;;;10.73;;
25653;SDS011;13511;48.622;9.230;2023-07-24T00:33:23;14.20;;;10.23;;
25653;SDS011;13511;48.622;9.230;2023-07-24T00:35:49;14.13;;;11.30;;
25653;SDS011;13511;48.622;9.230;2023-07-24T00:38:15;11.90;;;10.60;;
25653;SDS011;13511;48.622;9.230;2023-07-24T00:40:41;11.25;;;10.07;;
25653;SDS011;13511;48.622;9.230;2023-07-24T00:43:07;13.88;;;11.65;;
25653;SDS011;13511;48.622;9.230;2023-07-24T00:45:33;11.98;;;10.52;;
25653;SDS011;13511;48.622;9.230;2023-07-24T00:47:59;12.38;;;10.90;;
25653;SDS011;13511;48.622;9.230;2023-07-24T00:50:26;11.95;;;10.60;;
25653;SDS011;13511;48.622;9.230;2023-07-24T00:52:52;12.65;;;10.50;;
25653;SDS011;13511;48.622;9.230;2023-07-24T00:55:19;12.00;;;10.57;;
25653;SDS011;13511;48.622;9.230;2023-07-24T00:57:45;12.95;;;11.20;;
25653;SDS011;13511;48.622;9.230;2023-07-24T01:00:11;12.73;;;11.00;;
25653;SDS011;13511;48.622;9.230;2023-07-24T01:02:37;19.80;;;10.52;;
25653;SDS011;13511;48.622;9.230;2023-07-24T01:05:04;12.43;;;11.07;;
25653;SDS011;13511;48.622;9.230;2023-07-24T01:07:30;12.90;;;11.00;;
25653;SDS011;13511;48.622;9.230;2023-07-24T01:09:56;14.73;;;11.35;;
25653;SDS011;13511;48.622;9.230;2023-07-24T01:12:23;12.15;;;10.68;;
25653;SDS011;13511;48.622;9.230;2023-07-24T01:14:55;12.27;;;10.90;;
25653;SDS011;13511;48.622;9.230;2023-07-24T01:17:24;11.13;;;9.73;;
25653;SDS011;13511;48.622;9.230;2023-07-24T01:19:52;14.95;;;10.93;;
25653;SDS011;13511;48.622;9.230;2023-07-24T01:27:23;13.00;;;10.90;;
25653;SDS011;13511;48.622;9.230;2023-07-24T01:29:49;14.18;;;10.63;;
25653;SDS011;13511;48.622;9.230;2023-07-24T01:32:15;12.70;;;10.95;;
25653;SDS011;13511;48.622;9.230;2023-07-24T01:34:41;12.63;;;10.55;;
25653;SDS011;13511;48.622;9.230;2023-07-24T01:37:08;14.75;;;10.68;;
25653;SDS011;13511;48.622;9.230;2023-07-24T01:39:35;11.32;;;9.98;;
25653;SDS011;13511;48.622;9.230;2023-07-24T01:42:01;13.27;;;10.93;;
25653;SDS011;13511;48.622;9.230;2023-07-24T01:44:27;13.30;;;11.05;;
25653;SDS011;13511;48.622;9.230;2023-07-24T01:46:53;11.75;;;10.40;;
25653;SDS011;13511;48.622;9.230;2023-07-24T01:49:19;15.32;;;11.27;;
25653;SDS011;13511;48.622;9.230;2023-07-24T01:51:45;12.60;;;10.88;;
25653;SDS011;13511;48.622;9.230;2023-07-24T01:54:11;13.75;;;10.95;;
25653;SDS011;13511;48.622;9.230;2023-07-24T01:56:37;12.75;;;11.20;;
25653;SDS011;13511;48.622;9.230;2023-07-24T01:59:04;12.27;;;10.88;;
25653;SDS011;13511;48.622;9.230;2023-07-24T02:01:31;12.93;;;10.15;;
25653;SDS011;13511;48.622;9.230;2023-07-24T02:03:57;12.25;;;10.35;;
25653;SDS011;13511;48.622;9.230;2023-07-24T02:06:23;12.23;;;10.82;;
25653;SDS011;13511;48.622;9.230;2023-07-24T02:08:49;14.82;;;11.27;;
25653;SDS011;13511;48.622;9.230;2023-07-24T02:11:16;12.88;;;10.65;;
25653;SDS011;13511;48.622;9.230;2023-07-24T02:13:45;11.70;;;10.50;;
25653;SDS011;13511;48.622;9.230;2023-07-24T02:16:12;13.35;;;10.25;;
25653;SDS011;13511;48.622;9.230;2023-07-24T02:18:40;13.45;;;10.52;;
25653;SDS011;13511;48.622;9.230;2023-07-24T02:21:06;14.10;;;10.68;;
25653;SDS011;13511;48.622;9.230;2023-07-24T02:23:32;11.00;;;9.85;;
25653;SDS011;13511;48.622;9.230;2023-07-24T02:25:58;11.50;;;10.23;;
25653;SDS011;13511;48.622;9.230;2023-07-24T02:28:24;13.98;;;10.85;;
25653;SDS011;13511;48.622;9.230;2023-07-24T02:30:50;12.75;;;10.43;;
25653;SDS011;13511;48.622;9.230;2023-07-24T02:33:17;12.93;;;10.65;;
25653;SDS011;13511;48.622;9.230;2023-07-24T02:35:43;14.57;;;11.10;;
25653;SDS011;13511;48.622;9.230;2023-07-24T02:38:09;14.20;;;11.23;;
25653;SDS011;13511;48.622;9.230;2023-07-24T02:40:35;13.05;;;10.35;;
25653;SDS011;13511;48.622;9.230;2023-07-24T02:43:01;13.73;;;10.52;;
25653;SDS011;13511;48.622;9.230;2023-07-24T02:45:27;13.48;;;10.55;;
25653;SDS011;13511;48.622;9.230;2023-07-24T02:47:53;12.18;;;10.88;;
25653;SDS011;13511;48.622;9.230;2023-07-24T02:50:19;12.15;;;10.85;;
25653;SDS011;13511;48.622;9.230;2023-07-24T02:52:45;11.75;;;10.50;;
25653;SDS011;13511;48.622;9.230;2023-07-24T02:55:11;11.30;;;10.10;;
25653;SDS011;13511;48.622;9.230;2023-07-24T02:57:37;13.02;;;10.40;;
25653;SDS011;13511;48.622;9.230;2023-07-24T03:00:03;11.98;;;10.57;;
25653;SDS011;13511;48.622;9.230;2023-07-24T03:02:29;13.05;;;11.02;;
25653;SDS011;13511;48.622;9.230;2023-07-24T03:04:55;14.73;;;11.73;;
25653;SDS011;13511;48.622;9.230;2023-07-24T03:07:21;16.17;;;11.50;;
25653;SDS011;13511;48.622;9.230;2023-07-24T03:09:47;13.25;;;10.55;;
25653;SDS011;13511;48.622;9.230;2023-07-24T03:12:13;13.68;;;11.30;;
25653;SDS011;13511;48.622;9.230;2023-07-24T03:14:39;11.80;;;10.55;;
25653;SDS011;13511;48.622;9.230;2023-07-24T03:17:05;13.73;;;10.90;;
25653;SDS011;13511;48.622;9.230;2023-07-24T03:19:31;12.40;;;10.73;;
25653;SDS011;13511;48.622;9.230;2023-07-24T03:21:57;15.52;;;11.35;;
25653;SDS011;13511;48.622;9.230;2023-07-24T03:24:23;13.27;;;11.10;;
25653;SDS011;13511;48.622;9.230;2023-07-24T03:26:49;11.43;;;10.23;;
25653;SDS011;13511;48.622;9.230;2023-07-24T03:29:15;11.40;;;10.23;;
25653;SDS011;13511;48.622;9.230;2023-07-24T03:31:41;13.82;;;11.25;;
25653;SDS011;13511;48.622;9.230;2023-07-24T03:34:07;11.23;;;10.02;;
25653;SDS011;13511;48.622;9.230;2023-07-24T03:36:33;11.70;;;9.95;;
25653;SDS011;13511;48.622;9.230;2023-07-24T03:39:00;14.60;;;11.75;;
25653;SDS011;13511;48.622;9.230;2023-07-24T03:41:27;15.82;;;11.82;;
25653;SDS011;13511;48.622;9.230;2023-07-24T03:43:53;13.85;;;11.38;;
25653;SDS011;13511;48.622;9.230;2023-07-24T03:46:19;13.02;;;11.70;;
25653;SDS011;13511;48.622;9.230;2023-07-24T03:48:45;13.43;;;11.00;;
25653;SDS011;13511;48.622;9.230;2023-07-24T03:51:11;13.40;;;11.38;;
25653;SDS011;13511;48.622;9.230;2023-07-24T03:53:37;12.90;;;10.75;;
25653;SDS011;13511;48.622;9.230;2023-07-24T03:56:03;13.30;;;11.63;;
25653;SDS011;13511;48.622;9.230;2023-07-24T03:58:29;12.52;;;10.93;;
25653;SDS011;13511;48.622;9.230;2023-07-24T04:00:55;14.38;;;11.07;;
25653;SDS011;13511;48.622;9.230;2023-07-24T04:03:21;14.48;;;11.63;;
25653;SDS011;13511;48.622;9.230;2023-07-24T04:05:47;12.85;;;10.93;;
25653;SDS011;13511;48.622;9.230;2023-07-24T04:08:13;12.95;;;11.48;;
25653;SDS011;13511;48.622;9.230;2023-07-24T04:10:39;14.52;;;11.68;;
25653;SDS011;13511;48.622;9.230;2023-07-24T04:13:05;12.85;;;10.82;;
25653;SDS011;13511;48.622;9.230;2023-07-24T04:15:31;13.30;;;11.13;;
25653;SDS011;13511;48.622;9.230;2023-07-24T04:17:57;14.18;;;11.50;;
25653;SDS011;13511;48.622;9.230;2023-07-24T04:20:23;13.23;;;11.02;;
25653;SDS011;13511;48.622;9.230;2023-07-24T04:22:49;13.85;;;11.35;;
25653;SDS011;13511;48.622;9.230;2023-07-24T04:25:15;13.18;;;11.15;;
25653;SDS011;13511;48.622;9.230;2023-07-24T04:27:41;14.00;;;11.43;;
25653;SDS011;13511;48.622;9.230;2023-07-24T04:30:07;16.77;;;12.20;;
25653;SDS011;13511;48.622;9.230;2023-07-24T04:32:33;13.52;;;11.20;;
25653;SDS011;13511;48.622;9.230;2023-07-24T04:34:59;12.82;;;11.45;;
25653;SDS011;13511;48.622;9.230;2023-07-24T04:37:25;14.30;;;11.35;;
25653;SDS011;13511;48.622;9.230;2023-07-24T04:39:51;12.48;;;10.30;;
25653;SDS011;13511;48.622;9.230;2023-07-24T04:42:17;13.40;;;10.77;;
25653;SDS011;13511;48.622;9.230;2023-07-24T04:44:43;12.77;;;11.32;;
25653;SDS011;13511;48.622;9.230;2023-07-24T04:47:09;16.88;;;11.98;;
25653;SDS011;13511;48.622;9.230;2023-07-24T04:49:35;13.27;;;11.30;;
25653;SDS011;13511;48.622;9.230;2023-07-24T04:52:01;14.10;;;12.35;;
25653;SDS011;13511;48.622;9.230;2023-07-24T04:54:28;13.20;;;10.82;;
25653;SDS011;13511;48.622;9.230;2023-07-24T04:56:54;12.45;;;10.95;;
25653;SDS011;13511;48.622;9.230;2023-07-24T04:59:20;12.88;;;10.73;;
25653;SDS011;13511;48.622;9.230;2023-07-24T05:01:46;14.02;;;11.15;;
25653;SDS011;13511;48.622;9.230;2023-07-24T05:04:12;14.40;;;11.55;;
25653;SDS011;13511;48.622;9.230;2023-07-24T05:06:38;17.13;;;11.15;;
25653;SDS011;13511;48.622;9.230;2023-07-24T05:09:04;13.95;;;11.25;;
25653;SDS011;13511;48.622;9.230;2023-07-24T05:11:30;13.52;;;10.73;;
25653;SDS011;13511;48.622;9.230;2023-07-24T05:13:56;14.25;;;10.95;;
25653;SDS011;13511;48.622;9.230;2023-07-24T05:16:22;13.18;;;11.05;;
25653;SDS011;13511;48.622;9.230;2023-07-24T05:18:48;15.30;;;11.20;;
25653;SDS011;13511;48.622;9.230;2023-07-24T05:21:14;13.75;;;11.25;;
25653;SDS011;13511;48.622;9.230;2023-07-24T05:23:40;12.98;;;10.43;;
25653;SDS011;13511;48.622;9.230;2023-07-24T05:26:06;12.60;;;10.75;;
25653;SDS011;13511;48.622;9.230;2023-07-24T05:28:32;12.60;;;11.25;;
25653;SDS011;13511;48.622;9.230;2023-07-24T05:31:04;15.40;;;11.52;;
25653;SDS011;13511;48.622;9.230;2023-07-24T05:33:31;12.50;;;11.02;;
25653;SDS011;13511;48.622;9.230;2023-07-24T05:36:00;12.48;;;11.00;;
25653;SDS011;13511;48.622;9.230;2023-07-24T05:38:26;11.30;;;10.10;;
25653;SDS011;13511;48.622;9.230;2023-07-24T05:43:21;14.63;;;11.55;;
25653;SDS011;13511;48.622;9.230;2023-07-24T05:45:48;12.50;;;10.85;;
25653;SDS011;13511;48.622;9.230;2023-07-24T05:48:14;17.20;;;11.45;;
25653;SDS011;13511;48.622;9.230;2023-07-24T05:50:40;12.98;;;9.60;;
25653;SDS011;13511;48.622;9.230;2023-07-24T05:53:06;12.13;;;10.82;;
25653;SDS011;13511;48.622;9.230;2023-07-24T05:55:32;13.60;;;11.63;;
25653;SDS011;13511;48.622;9.230;2023-07-24T05:57:58;13.30;;;11.32;;
25653;SDS011;13511;48.622;9.230;2023-07-24T06:00:24;15.23;;;11.25;;
25653;SDS011;13511;48.622;9.230;2023-07-24T06:02:50;15.25;;;10.43;;
25653;SDS011;13511;48.622;9.230;2023-07-24T06:05:16;15.52;;;11.75;;
25653;SDS011;13511;48.622;9.230;2023-07-24T06:07:42;13.98;;;11.10;;
25653;SDS011;13511;48.622;9.230;2023-07-24T06:10:08;16.02;;;11.60;;
25653;SDS011;13511;48.622;9.230;2023-07-24T06:12:34;14.52;;;11.57;;
25653;SDS011;13511;48.622;9.230;2023-07-24T06:15:00;16.63;;;12.18;;
25653;SDS011;13511;48.622;9.230;2023-07-24T06:17:26;13.38;;;10.95;;
25653;SDS011;13511;48.622;9.230;2023-07-24T06:19:52;13.27;;;11.25;;
25653;SDS011;13511;48.622;9.230;2023-07-24T06:22:18;12.05;;;10.75;;
25653;SDS011;13511;48.622;9.230;2023-07-24T06:24:44;13.00;;;11.57;;
25653;SDS011;13511;48.622;9.230;2023-07-24T06:27:10;16.77;;;11.20;;
25653;SDS011;13511;48.622;9.230;2023-07-24T06:29:36;11.93;;;10.55;;
25653;SDS011;13511;48.622;9.230;2023-07-24T06:32:02;14.95;;;10.98;;
25653;SDS011;13511;48.622;9.230;2023-07-24T06:34:29;12.55;;;11.02;;
25653;SDS011;13511;48.622;9.230;2023-07-24T06:36:55;13.77;;;11.23;;
25653;SDS011;13511;48.622;9.230;2023-07-24T06:39:21;13.18;;;11.73;;
25653;SDS011;13511;48.622;9.230;2023-07-24T06:41:47;15.23;;;11.18;;
25653;SDS011;13511;48.622;9.230;2023-07-24T06:44:13;14.18;;;10.88;;
25653;SDS011;13511;48.622;9.230;2023-07-24T06:46:39;13.40;;;11.35;;
25653;SDS011;13511;48.622;9.230;2023-07-24T06:49:05;11.93;;;10.70;;
25653;SDS011;13511;48.622;9.230;2023-07-24T06:51:31;13.98;;;11.20;;
25653;SDS011;13511;48.622;9.230;2023-07-24T06:53:57;12.60;;;11.27;;
25653;SDS011;13511;48.622;9.230;2023-07-24T06:56:23;13.93;;;11.80;;
25653;SDS011;13511;48.622;9.230;2023-07-24T06:58:48;14.05;;;11.40;;
25653;SDS011;13511;48.622;9.230;2023-07-24T07:01:14;15.07;;;11.18;;
25653;SDS011;13511;48.622;9.230;2023-07-24T07:03:40;13.50;;;11.27;;
25653;SDS011;13511;48.622;9.230;2023-07-24T07:06:06;12.13;;;10.77;;
25653;SDS011;13511;48.622;9.230;2023-07-24T07:08:34;12.68;;;10.35;;
25653;SDS011;13511;48.622;9.230;2023-07-24T07:11:00;16.38;;;12.35;;
25653;SDS011;13511;48.622;9.230;2023-07-24T07:13:27;14.82;;;10.90;;
25653;SDS011;13511;48.622;9.230;2023-07-24T07:15:53;16.33;;;11.25;;
25653;SDS011;13511;48.622;9.230;2023-07-24T07:18:19;14.20;;;12.05;;
25653;SDS011;13511;48.622;9.230;2023-07-24T07:20:49;13.95;;;11.70;;
25653;SDS011;13511;48.622;9.230;2023-07-24T07:23:15;13.80;;;11.25;;
25653;SDS011;13511;48.622;9.230;2023-07-24T07:25:41;13.32;;;11.10;;
25653;SDS011;13511;48.622;9.230;2023-07-24T07:28:13;13.68;;;11.73;;
25653;SDS011;13511;48.622;9.230;2023-07-24T07:30:40;14.65;;;11.77;;
25653;SDS011;13511;48.622;9.230;2023-07-24T07:33:06;14.75;;;11.18;;
25653;SDS011;13511;48.622;9.230;2023-07-24T07:35:32;15.93;;;11.45;;
25653;SDS011;13511;48.622;9.230;2023-07-24T07:37:58;12.65;;;10.95;;
25653;SDS011;13511;48.622;9.230;2023-07-24T07:40:25;12.93;;;10.18;;
25653;SDS011;13511;48.622;9.230;2023-07-24T07:42:52;13.48;;;10.77;;
25653;SDS011;13511;48.622;9.230;2023-07-24T07:45:18;13.88;;;10.43;;
25653;SDS011;13511;48.622;9.230;2023-07-24T07:47:44;11.82;;;10.63;;
25653;SDS011;13511;48.622;9.230;2023-07-24T07:50:10;16.42;;;11.25;;
25653;SDS011;13511;48.622;9.230;2023-07-24T07:52:36;15.85;;;11.45;;
25653;SDS011;13511;48.622;9.230;2023-07-24T07:55:02;14.50;;;11.73;;
25653;SDS011;13511;48.622;9.230;2023-07-24T07:57:31;16.50;;;11.32;;
25653;SDS011;13511;48.622;9.230;2023-07-24T07:59:57;13.95;;;10.63;;
25653;SDS011;13511;48.622;9.230;2023-07-24T08:02:23;11.80;;;10.68;;
25653;SDS011;13511;48.622;9.230;2023-07-24T08:04:49;18.08;;;10.80;;
25653;SDS011;13511;48.622;9.230;2023-07-24T08:07:15;13.70;;;10.57;;
25653;SDS011;13511;48.622;9.230;2023-07-24T08:09:41;13.90;;;10.82;;
25653;SDS011;13511;48.622;9.230;2023-07-24T08:12:07;15.68;;;10.32;;
25653;SDS011;13511;48.622;9.230;2023-07-24T08:14:33;14.07;;;11.40;;
25653;SDS011;13511;48.622;9.230;2023-07-24T08:16:59;12.10;;;10.65;;
25653;SDS011;13511;48.622;9.230;2023-07-24T08:19:27;12.32;;;10.27;;
25653;SDS011;13511;48.622;9.230;2023-07-24T08:21:54;15.35;;;10.98;;
25653;SDS011;13511;48.622;9.230;2023-07-24T08:24:20;12.63;;;10.85;;
25653;SDS011;13511;48.622;9.230;2023-07-24T08:26:46;14.38;;;10.13;;
25653;SDS011;13511;48.622;9.230;2023-07-24T08:29:12;14.80;;;10.35;;
25653;SDS011;13511;48.622;9.230;2023-07-24T08:31:38;15.88;;;10.77;;
25653;SDS011;13511;48.622;9.230;2023-07-24T08:34:04;11.05;;;9.95;;
25653;SDS011;13511;48.622;9.230;2023-07-24T08:36:30;30.60;;;12.23;;
25653;SDS011;13511;48.622;9.230;2023-07-24T08:38:56;16.25;;;11.27;;
25653;SDS011;13511;48.622;9.230;2023-07-24T08:41:22;15.55;;;11.38;;
25653;SDS011;13511;48.622;9.230;2023-07-24T08:43:48;15.32;;;11.20;;
25653;SDS011;13511;48.622;9.230;2023-07-24T08:46:16;16.15;;;12.43;;
25653;SDS011;13511;48.622;9.230;2023-07-24T08:48:44;13.73;;;12.43;;
25653;SDS011;13511;48.622;9.230;2023-07-24T08:51:11;14.30;;;12.80;;
25653;SDS011;13511;48.622;9.230;2023-07-24T08:53:39;14.63;;;12.80;;
25653;SDS011;13511;48.622;9.230;2023-07-24T08:56:05;17.75;;;12.60;;
25653;SDS011;13511;48.622;9.230;2023-07-24T08:58:32;14.68;;;11.50;;
25653;SDS011;13511;48.622;9.230;2023-07-24T09:00:58;15.02;;;12.77;;
25653;SDS011;13511;48.622;9.230;2023-07-24T09:03:25;13.57;;;11.98;;
25653;SDS011;13511;48.622;9.230;2023-07-24T09:05:51;14.40;;;11.50;;
25653;SDS011;13511;48.622;9.230;2023-07-24T09:08:27;15.02;;;13.35;;
25653;SDS011;13511;48.622;9.230;2023-07-24T09:10:54;14.77;;;12.68;;
25653;SDS011;13511;48.622;9.230;2023-07-24T09:13:20;16.77;;;13.15;;
25653;SDS011;13511;48.622;9.230;2023-07-24T09:15:46;14.10;;;12.70;;
25653;SDS011;13511;48.622;9.230;2023-07-24T09:18:12;17.27;;;13.00;;
25653;SDS011;13511;48.622;9.230;2023-07-24T09:20:39;15.10;;;12.63;;
25653;SDS011;13511;48.622;9.230;2023-07-24T09:23:05;13.60;;;11.88;;
25653;SDS011;13511;48.622;9.230;2023-07-24T09:25:32;13.80;;;12.35;;
25653;SDS011;13511;48.622;9.230;2023-07-24T09:27:58;15.30;;;11.85;;
25653;SDS011;13511;48.622;9.230;2023-07-24T09:30:24;13.27;;;11.88;;
25653;SDS011;13511;48.622;9.230;2023-07-24T09:32:54;15.25;;;13.30;;
25653;SDS011;13511;48.622;9.230;2023-07-24T09:35:20;14.15;;;12.65;;
25653;SDS011;13511;48.622;9.230;2023-07-24T09:38:06;14.40;;;12.00;;
25653;SDS011;13511;48.622;9.230;2023-07-24T09:40:45;16.88;;;13.23;;
25653;SDS011;13511;48.622;9.230;2023-07-24T09:45:44;16.02;;;12.50;;
25653;SDS011;13511;48.622;9.230;2023-07-24T09:48:11;13.95;;;12.48;;
25653;SDS011;13511;48.622;9.230;2023-07-24T09:50:39;16.10;;;12.77;;
25653;SDS011;13511;48.622;9.230;2023-07-24T09:53:06;16.23;;;12.70;;
25653;SDS011;13511;48.622;9.230;2023-07-24T09:55:35;17.35;;;12.60;;
25653;SDS011;13511;48.622;9.230;2023-07-24T09:58:03;16.57;;;13.57;;
25653;SDS011;13511;48.622;9.230;2023-07-24T10:00:30;16.45;;;13.13;;
25653;SDS011;13511;48.622;9.230;2023-07-24T10:02:57;16.60;;;12.52;;
25653;SDS011;13511;48.622;9.230;2023-07-24T10:05:23;12.70;;;11.43;;
25653;SDS011;13511;48.622;9.230;2023-07-24T10:07:49;17.08;;;11.55;;
25653;SDS011;13511;48.622;9.230;2023-07-24T10:10:16;17.70;;;11.73;;
25653;SDS011;13511;48.622;9.230;2023-07-24T10:12:42;11.63;;;10.43;;
25653;SDS011;13511;48.622;9.230;2023-07-24T10:15:08;12.57;;;11.05;;
25653;SDS011;13511;48.622;9.230;2023-07-24T10:17:38;18.02;;;12.73;;
25653;SDS011;13511;48.622;9.230;2023-07-24T10:20:04;13.23;;;11.20;;
25653;SDS011;13511;48.622;9.230;2023-07-24T10:22:31;16.23;;;12.13;;
25653;SDS011;13511;48.622;9.230;2023-07-24T10:24:57;13.82;;;11.90;;
25653;SDS011;13511;48.622;9.230;2023-07-24T10:27:23;13.35;;;11.32;;
25653;SDS011;13511;48.622;9.230;2023-07-24T10:30:01;15.45;;;11.70;;
25653;SDS011;13511;48.622;9.230;2023-07-24T10:32:28;18.05;;;12.57;;
25653;SDS011;13511;48.622;9.230;2023-07-24T10:35:05;16.23;;;13.13;;
25653;SDS011;13511;48.622;9.230;2023-07-24T10:37:33;13.68;;;12.18;;
25653;SDS011;13511;48.622;9.230;2023-07-24T10:39:59;13.07;;;10.73;;
25653;SDS011;13511;48.622;9.230;2023-07-24T10:42:26;15.05;;;12.07;;
25653;SDS011;13511;48.622;9.230;2023-07-24T10:45:05;19.05;;;11.27;;
25653;SDS011;13511;48.622;9.230;2023-07-24T10:47:31;13.57;;;11.95;;
25653;SDS011;13511;48.622;9.230;2023-07-24T10:49:57;14.02;;;11.90;;
25653;SDS011;13511;48.622;9.230;2023-07-24T10:52:32;17.45;;;11.00;;
25653;SDS011;13511;48.622;9.230;2023-07-24T10:55:02;12.85;;;10.60;;
25653;SDS011;13511;48.622;9.230;2023-07-24T10:57:31;12.82;;;11.40;;
25653;SDS011;13511;48.622;9.230;2023-07-24T10:59:57;12.23;;;10.93;;
25653;SDS011;13511;48.622;9.230;2023-07-24T11:02:23;13.38;;;11.23;;
25653;SDS011;13511;48.622;9.230;2023-07-24T11:04:49;13.10;;;10.30;;
25653;SDS011;13511;48.622;9.230;2023-07-24T11:07:15;12.95;;;10.68;;
25653;SDS011;13511;48.622;9.230;2023-07-24T11:09:41;12.80;;;11.35;;
25653;SDS011;13511;48.622;9.230;2023-07-24T11:12:17;13.02;;;11.40;;
25653;SDS011;13511;48.622;9.230;2023-07-24T11:14:50;13.50;;;10.95;;
25653;SDS011;13511;48.622;9.230;2023-07-24T11:17:16;17.38;;;11.40;;
25653;SDS011;13511;48.622;9.230;2023-07-24T11:19:42;13.90;;;9.75;;
25653;SDS011;13511;48.622;9.230;2023-07-24T11:22:08;12.45;;;10.05;;
25653;SDS011;13511;48.622;9.230;2023-07-24T11:24:41;12.65;;;9.60;;
25653;SDS011;13511;48.622;9.230;2023-07-24T11:27:14;11.50;;;9.95;;
25653;SDS011;13511;48.622;9.230;2023-07-24T11:29:41;11.13;;;9.63;;
25653;SDS011;13511;48.622;9.230;2023-07-24T11:32:07;12.73;;;10.00;;
25653;SDS011;13511;48.622;9.230;2023-07-24T11:34:33;11.75;;;9.75;;
25653;SDS011;13511;48.622;9.230;2023-07-24T11:37:00;11.40;;;10.25;;
25653;SDS011;13511;48.622;9.230;2023-07-24T11:39:26;10.65;;;9.65;;
25653;SDS011;13511;48.622;9.230;2023-07-24T11:41:52;14.10;;;10.55;;
25653;SDS011;13511;48.622;9.230;2023-07-24T11:44:26;10.18;;;9.27;;
25653;SDS011;13511;48.622;9.230;2023-07-24T11:46:59;10.27;;;9.27;;
25653;SDS011;13511;48.622;9.230;2023-07-24T11:49:25;10.27;;;9.25;;
25653;SDS011;13511;48.622;9.230;2023-07-24T11:51:51;14.82;;;10.20;;
25653;SDS011;13511;48.622;9.230;2023-07-24T11:54:17;10.35;;;9.25;;
25653;SDS011;13511;48.622;9.230;2023-07-24T11:56:43;10.25;;;9.25;;
25653;SDS011;13511;48.622;9.230;2023-07-24T11:59:10;11.38;;;9.70;;
25653;SDS011;13511;48.622;9.230;2023-07-24T12:01:36;15.10;;;9.73;;
25653;SDS011;13511;48.622;9.230;2023-07-24T12:04:03;11.32;;;10.23;;
25653;SDS011;13511;48.622;9.230;2023-07-24T12:06:32;10.65;;;9.02;;
25653;SDS011;13511;48.622;9.230;2023-07-24T12:09:04;10.32;;;8.95;;
25653;SDS011;13511;48.622;9.230;2023-07-24T12:11:31;15.20;;;9.88;;
25653;SDS011;13511;48.622;9.230;2023-07-24T12:13:57;11.88;;;9.75;;
25653;SDS011;13511;48.622;9.230;2023-07-24T12:16:23;9.85;;;8.93;;
25653;SDS011;13511;48.622;9.230;2023-07-24T12:18:49;10.43;;;9.43;;
25653;SDS011;13511;48.622;9.230;2023-07-24T12:21:15;9.25;;;8.38;;
25653;SDS011;13511;48.622;9.230;2023-07-24T12:23:41;9.23;;;8.32;;
25653;SDS011;13511;48.622;9.230;2023-07-24T12:26:07;11.20;;;8.85;;
25653;SDS011;13511;48.622;9.230;2023-07-24T12:28:33;9.20;;;7.68;;
25653;SDS011;13511;48.622;9.230;2023-07-24T12:30:59;9.00;;;7.50;;
25653;SDS011;13511;48.622;9.230;2023-07-24T12:33:25;9.52;;;8.65;;
25653;SDS011;13511;48.622;9.230;2023-07-24T12:35:51;9.10;;;8.25;;
25653;SDS011;13511;48.622;9.230;2023-07-24T12:38:18;9.60;;;7.88;;
25653;SDS011;13511;48.622;9.230;2023-07-24T12:40:44;8.88;;;8.07;;
25653;SDS011;13511;48.622;9.230;2023-07-24T12:43:10;7.63;;;7.00;;
25653;SDS011;13511;48.622;9.230;2023-07-24T12:45:36;8.70;;;7.63;;
25653;SDS011;13511;48.622;9.230;2023-07-24T12:48:02;9.10;;;7.70;;
25653;SDS011;13511;48.622;9.230;2023-07-24T12:50:28;8.73;;;7.82;;
25653;SDS011;13511;48.622;9.230;2023-07-24T12:52:55;7.78;;;7.18;;
25653;SDS011;13511;48.622;9.230;2023-07-24T12:55:21;8.48;;;7.78;;
25653;SDS011;13511;48.622;9.230;2023-07-24T12:57:47;7.97;;;7.28;;
25653;SDS011;13511;48.622;9.230;2023-07-24T13:00:13;7.78;;;6.97;;
25653;SDS011;13511;48.622;9.230;2023-07-24T13:02:39;8.10;;;7.38;;
25653;SDS011;13511;48.622;9.230;2023-07-24T13:05:05;8.02;;;7.32;;
25653;SDS011;13511;48.622;9.230;2023-07-24T13:07:31;7.97;;;7.28;;
25653;SDS011;13511;48.622;9.230;2023-07-24T13:09:57;8.27;;;6.97;;
25653;SDS011;13511;48.622;9.230;2023-07-24T13:12:23;7.60;;;6.90;;
25653;SDS011;13511;48.622;9.230;2023-07-24T13:14:50;7.47;;;6.78;;
25653;SDS011;13511;48.622;9.230;2023-07-24T13:17:16;7.68;;;7.07;;
25653;SDS011;13511;48.622;9.230;2023-07-24T13:19:42;7.32;;;6.60;;
25653;SDS011;13511;48.622;9.230;2023-07-24T13:22:08;7.80;;;7.05;;
25653;SDS011;13511;48.622;9.230;2023-07-24T13:24:34;8.25;;;7.53;;
25653;SDS011;13511;48.622;9.230;2023-07-24T13:27:00;8.13;;;7.32;;
25653;SDS011;13511;48.622;9.230;2023-07-24T13:29:26;7.22;;;6.35;;
25653;SDS011;13511;48.622;9.230;2023-07-24T13:31:52;10.00;;;7.30;;
25653;SDS011;13511;48.622;9.230;2023-07-24T13:34:18;7.68;;;7.05;;
25653;SDS011;13511;48.622;9.230;2023-07-24T13:36:45;8.05;;;7.07;;
25653;SDS011;13511;48.622;9.230;2023-07-24T13:39:12;7.28;;;6.68;;
25653;SDS011;13511;48.622;9.230;2023-07-24T13:41:38;8.13;;;6.72;;
25653;SDS011;13511;48.622;9.230;2023-07-24T13:44:04;7.40;;;6.80;;
25653;SDS011;13511;48.622;9.230;2023-07-24T13:46:30;8.32;;;6.47;;
25653;SDS011;13511;48.622;9.230;2023-07-24T13:48:56;7.03;;;6.45;;
25653;SDS011;13511;48.622;9.230;2023-07-24T13:51:22;7.05;;;6.35;;
25653;SDS011;13511;48.622;9.230;2023-07-24T13:53:48;7.28;;;6.68;;
25653;SDS011;13511;48.622;9.230;2023-07-24T13:56:16;7.32;;;6.82;;
25653;SDS011;13511;48.622;9.230;2023-07-24T13:58:43;7.00;;;6.35;;
25653;SDS011;13511;48.622;9.230;2023-07-24T14:01:09;6.72;;;6.13;;
25653;SDS011;13511;48.622;9.230;2023-07-24T14:03:36;6.57;;;6.07;;
25653;SDS011;13511;48.622;9.230;2023-07-24T14:06:02;6.55;;;5.95;;
25653;SDS011;13511;48.622;9.230;2023-07-24T14:08:28;6.80;;;6.22;;
25653;SDS011;13511;48.622;9.230;2023-07-24T14:10:54;6.03;;;5.53;;
25653;SDS011;13511;48.622;9.230;2023-07-24T14:13:20;6.47;;;5.88;;
25653;SDS011;13511;48.622;9.230;2023-07-24T14:15:46;5.97;;;5.57;;
25653;SDS011;13511;48.622;9.230;2023-07-24T14:18:12;6.38;;;5.80;;
25653;SDS011;13511;48.622;9.230;2023-07-24T14:20:38;6.00;;;5.57;;
25653;SDS011;13511;48.622;9.230;2023-07-24T14:23:05;6.78;;;6.20;;
25653;SDS011;13511;48.622;9.230;2023-07-24T14:25:32;6.35;;;5.68;;
25653;SDS011;13511;48.622;9.230;2023-07-24T14:27:58;6.22;;;5.72;;
25653;SDS011;13511;48.622;9.230;2023-07-24T14:30:24;6.07;;;5.57;;
25653;SDS011;13511;48.622;9.230;2023-07-24T14:32:50;6.43;;;5.82;;